createdAt,value
2019-03-23T00:01:52.349Z,99148.83
2019-03-23T00:04:25.388Z,99150.23
2019-03-23T00:06:56.159Z,99154.56
2019-03-23T00:09:27.542Z,99145.45
2019-03-23T00:11:58.578Z,99149.89
2019-03-23T00:14:29.586Z,99153.45
2019-03-23T00:17:00.287Z,99151.88
2019-03-23T00:19:31.675Z,99150.02
2019-03-23T00:22:04.163Z,99147.19
2019-03-23T00:24:35.367Z,99144.07
2019-03-23T00:27:06.252Z,99144.23
2019-03-23T00:29:37.218Z,99146.02
2019-03-23T00:32:09.389Z,99145.57
2019-03-23T00:34:40.239Z,99138.28
2019-03-23T00:37:12.417Z,99135.69
2019-03-23T00:39:43.295Z,99141.36
2019-03-23T00:42:14.251Z,99132.27
2019-03-23T00:44:45.363Z,99130.69
2019-03-23T00:47:16.435Z,99130.28
2019-03-23T00:49:47.477Z,99128.86
2019-03-23T00:52:18.523Z,99135.09
2019-03-23T00:54:49.512Z,99129.30
2019-03-23T00:57:20.584Z,99137.08
2019-03-23T00:59:51.889Z,99131.13
2019-03-23T01:02:22.938Z,99132.52
2019-03-23T01:04:53.835Z,99136.06
2019-03-23T01:07:24.806Z,99140.91
2019-03-23T01:09:55.786Z,99143.95
2019-03-23T01:12:26.752Z,99147.49
2019-03-23T01:14:57.816Z,99136.65
2019-03-23T01:17:29.199Z,99133.56
2019-03-23T01:19:59.901Z,99143.17
2019-03-23T01:22:31.837Z,99136.36
2019-03-23T01:25:02.812Z,99143.62
2019-03-23T01:27:33.795Z,99136.38
2019-03-23T01:30:05.180Z,99132.77
2019-03-23T01:32:36.009Z,99132.73
2019-03-23T01:35:08.434Z,99140.05
2019-03-23T01:37:39.287Z,99132.97
2019-03-23T01:40:10.575Z,99129.80
2019-03-23T01:42:41.736Z,99135.73
2019-03-23T01:45:14.160Z,99132.20
2019-03-23T01:47:45.290Z,99138.44
2019-03-23T01:50:16.246Z,99133.43
2019-03-23T01:52:47.427Z,99127.31
2019-03-23T01:55:18.370Z,99124.11
2019-03-23T01:57:49.225Z,99134.25
2019-03-23T02:00:20.016Z,99134.67
2019-03-23T02:02:51.124Z,99140.03
2019-03-23T02:05:22.107Z,99141.22
2019-03-23T02:07:52.918Z,99142.67
2019-03-23T02:10:23.782Z,99145.38
2019-03-23T02:12:54.524Z,99148.73
2019-03-23T02:15:25.254Z,99144.14
2019-03-23T02:17:56.917Z,99145.47
2019-03-23T02:20:27.747Z,99147.72
2019-03-23T02:22:58.867Z,99149.88
2019-03-23T02:25:29.872Z,99145.50
2019-03-23T02:28:01.137Z,99145.66
2019-03-23T02:30:32.393Z,99145.39
2019-03-23T02:33:03.437Z,99144.09
2019-03-23T02:35:34.538Z,99142.75
2019-03-23T02:38:05.635Z,99142.31
2019-03-23T02:40:36.821Z,99140.84
2019-03-23T02:43:07.945Z,99137.31
2019-03-23T02:45:39.057Z,99135.58
2019-03-23T02:48:09.858Z,99141.85
2019-03-23T02:50:40.699Z,99135.73
2019-03-23T02:53:11.871Z,99139.44
2019-03-23T02:55:42.811Z,99143.93
2019-03-23T02:58:13.776Z,99140.06
2019-03-23T03:00:44.890Z,99142.84
2019-03-23T03:03:15.827Z,99147.13
2019-03-23T03:05:46.795Z,99150.01
2019-03-23T03:08:17.817Z,99147.75
2019-03-23T03:10:48.623Z,99152.95
2019-03-23T03:13:20.078Z,99150.41
2019-03-23T03:15:50.761Z,99138.88
2019-03-23T03:18:21.818Z,99141.94
2019-03-23T03:20:52.764Z,99140.72
2019-03-23T03:23:23.531Z,99138.47
2019-03-23T03:25:54.463Z,99142.35
2019-03-23T03:28:25.438Z,99139.30
2019-03-23T03:30:56.253Z,99144.02
2019-03-23T03:33:27.133Z,99144.73
2019-03-23T03:35:58.209Z,99137.48
2019-03-23T03:38:29.152Z,99138.69
2019-03-23T03:41:00.212Z,99137.69
2019-03-23T03:43:30.959Z,99141.58
2019-03-23T03:46:01.956Z,99143.62
2019-03-23T03:48:32.934Z,99141.69
2019-03-23T03:51:03.792Z,99138.60
2019-03-23T03:53:34.850Z,99127.36
2019-03-23T03:56:06.170Z,99127.36
2019-03-23T03:58:37.133Z,99137.78
2019-03-23T04:01:08.015Z,99133.79
2019-03-23T04:03:38.800Z,99136.56
2019-03-23T04:06:09.917Z,99136.16
2019-03-23T04:08:42.251Z,99139.00
2019-03-23T04:11:13.405Z,99131.34
2019-03-23T04:13:44.627Z,99137.60
2019-03-23T04:16:15.462Z,99138.00
2019-03-23T04:18:46.881Z,99138.00
2019-03-23T04:21:17.590Z,99136.17
2019-03-23T04:23:48.474Z,99138.61
2019-03-23T04:26:19.428Z,99142.30
2019-03-23T04:28:50.333Z,99137.89
2019-03-23T04:31:21.334Z,99135.34
2019-03-23T04:33:52.272Z,99136.34
2019-03-23T04:36:23.251Z,99135.66
2019-03-23T04:38:54.356Z,99136.34
2019-03-23T04:41:25.272Z,99139.32
2019-03-23T04:43:56.446Z,99136.66
2019-03-23T04:46:27.143Z,99139.10
2019-03-23T04:48:57.992Z,99141.86
2019-03-23T04:51:29.032Z,99140.75
2019-03-23T04:54:00.022Z,99140.64
2019-03-23T04:56:30.759Z,99139.09
2019-03-23T04:59:01.796Z,99141.75
2019-03-23T05:01:32.702Z,99132.44
2019-03-23T05:04:03.624Z,99132.16
2019-03-23T05:06:34.563Z,99135.81
2019-03-23T05:09:09.602Z,99143.41
2019-03-23T05:11:40.548Z,99143.17
2019-03-23T05:14:11.737Z,99141.73
2019-03-23T05:16:42.836Z,99147.05
2019-03-23T05:19:13.851Z,99148.37
2019-03-23T05:21:44.801Z,99152.68
2019-03-23T05:24:16.167Z,99149.70
2019-03-23T05:26:47.362Z,99154.30
2019-03-23T05:29:18.574Z,99153.30
2019-03-23T05:31:49.897Z,99162.20
2019-03-23T05:34:21.184Z,99155.34
2019-03-23T05:36:52.277Z,99156.79
2019-03-23T05:39:23.333Z,99156.25
2019-03-23T05:41:54.421Z,99160.17
2019-03-23T05:44:25.428Z,99161.90
2019-03-23T05:46:56.208Z,99163.13
2019-03-23T05:49:27.374Z,99156.99
2019-03-23T05:51:58.359Z,99167.02
2019-03-23T05:54:29.576Z,99166.23
2019-03-23T05:57:00.606Z,99166.23
2019-03-23T05:59:31.833Z,99166.23
2019-03-23T06:02:02.965Z,99165.08
2019-03-23T06:04:34.154Z,99173.48
2019-03-23T06:07:05.197Z,99167.94
2019-03-23T06:09:36.118Z,99175.66
2019-03-23T06:12:07.046Z,99174.91
2019-03-23T06:14:38.001Z,99175.47
2019-03-23T06:17:09.010Z,99173.86
2019-03-23T06:19:40.075Z,99174.98
2019-03-23T06:22:10.751Z,99176.83
2019-03-23T06:24:41.605Z,99179.84
2019-03-23T06:27:12.882Z,99173.52
2019-03-23T06:29:44.043Z,99175.82
2019-03-23T06:32:14.884Z,99175.44
2019-03-23T06:34:45.822Z,99178.77
2019-03-23T06:37:16.864Z,99182.75
2019-03-23T06:39:48.043Z,99182.39
2019-03-23T06:42:19.848Z,99174.63
2019-03-23T06:44:50.816Z,99181.41
2019-03-23T06:47:21.792Z,99174.17
2019-03-23T06:49:52.688Z,99175.98
2019-03-23T06:52:23.684Z,99175.38
2019-03-23T06:54:54.678Z,99174.05
2019-03-23T06:57:26.006Z,99172.66
2019-03-23T06:59:57.000Z,99173.66
2019-03-23T07:02:28.107Z,99170.08
2019-03-23T07:04:58.838Z,99174.53
2019-03-23T07:07:30.898Z,99177.89
2019-03-23T07:10:02.128Z,99178.17
2019-03-23T07:12:35.935Z,99173.71
2019-03-23T07:15:19.098Z,99183.19
2019-03-23T07:17:41.013Z,99178.98
2019-03-23T07:20:12.789Z,99183.00
2019-03-23T07:22:43.524Z,99182.95
2019-03-23T07:25:14.588Z,99180.49
2019-03-23T07:27:45.618Z,99186.88
2019-03-23T07:30:16.974Z,99189.45
2019-03-23T07:32:48.208Z,99191.11
2019-03-23T07:35:19.387Z,99185.43
2019-03-23T07:37:50.773Z,99189.20
2019-03-23T07:40:21.753Z,99188.73
2019-03-23T07:42:52.970Z,99180.98
2019-03-23T07:45:24.092Z,99178.18
2019-03-23T07:47:55.228Z,99180.47
2019-03-23T07:50:26.414Z,99187.63
2019-03-23T07:52:57.536Z,99186.77
2019-03-23T07:55:28.716Z,99184.03
2019-03-23T07:57:59.726Z,99181.25
2019-03-23T08:00:30.894Z,99180.82
2019-03-23T08:03:02.218Z,99178.96
2019-03-23T08:05:33.354Z,99182.53
2019-03-23T08:08:04.648Z,99186.52
2019-03-23T08:10:35.984Z,99185.98
2019-03-23T08:13:06.964Z,99191.09
2019-03-23T08:15:38.186Z,99190.63
2019-03-23T08:18:09.338Z,99182.84
2019-03-23T08:20:40.288Z,99178.52
2019-03-23T08:23:11.655Z,99190.11
2019-03-23T08:25:42.790Z,99183.23
2019-03-23T08:28:14.003Z,99186.63
2019-03-23T08:30:44.907Z,99193.95
2019-03-23T08:33:18.170Z,99191.88
2019-03-23T08:35:49.402Z,99193.39
2019-03-23T08:38:20.561Z,99193.84
2019-03-23T08:40:51.532Z,99196.64
2019-03-23T08:43:22.767Z,99194.59
2019-03-23T08:45:54.039Z,99190.44
2019-03-23T08:48:25.472Z,99186.89
2019-03-23T08:50:56.792Z,99192.44
2019-03-23T08:53:28.748Z,99179.63
2019-03-23T08:55:59.911Z,99183.42
2019-03-23T08:58:30.945Z,99180.31
2019-03-23T09:01:02.062Z,99187.67
2019-03-23T09:03:33.153Z,99176.23
2019-03-23T09:06:04.355Z,99169.13
2019-03-23T09:08:35.466Z,99170.42
2019-03-23T09:11:06.749Z,99166.18
2019-03-23T09:13:40.823Z,99182.84
2019-03-23T09:16:10.598Z,99177.92
2019-03-23T09:18:42.269Z,99177.36
2019-03-23T09:21:13.343Z,99180.03
2019-03-23T09:23:44.512Z,99172.80
2019-03-23T09:26:15.877Z,99174.41
2019-03-23T09:28:47.822Z,99170.18
2019-03-23T09:31:19.087Z,99169.74
2019-03-23T09:33:51.291Z,99172.53
2019-03-23T09:36:23.604Z,99176.72
2019-03-23T09:38:55.056Z,99170.28
2019-03-23T09:41:26.052Z,99170.25
2019-03-23T09:43:57.195Z,99171.59
2019-03-23T09:46:28.282Z,99169.41
2019-03-23T09:49:00.599Z,99166.81
2019-03-23T09:51:31.542Z,99161.75
2019-03-23T09:54:02.765Z,99159.53
2019-03-23T09:56:34.083Z,99152.34
2019-03-23T09:59:05.046Z,99152.63
2019-03-23T10:01:36.121Z,99145.82
2019-03-23T10:04:07.371Z,99148.63
2019-03-23T10:06:38.432Z,99142.26
2019-03-23T10:09:09.458Z,99135.41
2019-03-23T10:11:40.938Z,99135.72
2019-03-23T10:14:12.117Z,99136.19
2019-03-23T10:16:41.923Z,99132.37
2019-03-23T10:19:11.550Z,99130.72
2019-03-23T10:21:41.126Z,99124.80
2019-03-23T10:24:12.167Z,99124.15
2019-03-23T10:26:42.029Z,99128.62
2019-03-23T10:29:13.132Z,99126.35
2019-03-23T10:31:44.458Z,99113.68
2019-03-23T10:34:15.251Z,99118.31
2019-03-23T10:36:46.110Z,99103.93
2019-03-23T10:39:16.033Z,99101.59
2019-03-23T10:41:47.250Z,99105.33
2019-03-23T10:44:18.249Z,99106.44
2019-03-23T10:46:49.367Z,99103.05
2019-03-23T10:49:20.461Z,99098.75
2019-03-23T10:51:50.236Z,99099.48
2019-03-23T10:54:22.344Z,99100.25
2019-03-23T10:56:53.162Z,99096.64
2019-03-23T10:59:24.008Z,99091.05
2019-03-23T11:01:54.991Z,99094.66
2019-03-23T11:04:25.750Z,99094.80
2019-03-23T11:06:56.985Z,99096.72
2019-03-23T11:09:26.591Z,99100.81
2019-03-23T11:11:56.230Z,99092.88
2019-03-23T11:14:29.520Z,99092.87
2019-03-23T11:16:59.158Z,99092.54
2019-03-23T11:19:28.899Z,99089.81
2019-03-23T11:21:58.363Z,99087.75
2019-03-23T11:24:28.478Z,99082.98
2019-03-23T11:26:58.602Z,99086.81
2019-03-23T11:29:29.805Z,99077.56
2019-03-23T11:32:00.943Z,99078.26
2019-03-23T11:34:32.257Z,99084.28
2019-03-23T11:37:03.636Z,99072.58
2019-03-23T11:39:34.783Z,99086.01
2019-03-23T11:42:05.895Z,99083.95
2019-03-23T11:44:35.517Z,99083.69
2019-03-23T11:47:06.251Z,99083.58
2019-03-23T11:49:37.353Z,99072.19
2019-03-23T11:52:08.163Z,99070.28
2019-03-23T11:54:38.944Z,99075.52
2019-03-23T11:57:08.658Z,99074.78
2019-03-23T11:59:38.232Z,99065.61
2019-03-23T12:02:09.204Z,99075.17
2019-03-23T12:04:40.217Z,99068.63
2019-03-23T12:07:11.494Z,99067.97
2019-03-23T12:09:42.610Z,99072.88
2019-03-23T12:12:13.681Z,99061.14
2019-03-23T12:14:45.002Z,99067.27
2019-03-23T12:17:16.114Z,99066.05
2019-03-23T12:19:47.394Z,99061.42
2019-03-23T12:22:18.483Z,99054.45
2019-03-23T12:24:48.167Z,99052.05
2019-03-23T12:27:19.025Z,99052.44
2019-03-23T12:29:50.081Z,99042.63
2019-03-23T12:32:21.246Z,99045.03
2019-03-23T12:34:52.388Z,99042.77
2019-03-23T12:37:23.346Z,99043.59
2019-03-23T12:39:53.171Z,99038.08
2019-03-23T12:42:24.936Z,99041.56
2019-03-23T12:44:56.091Z,99043.05
2019-03-23T12:47:28.147Z,99039.04
2019-03-23T12:49:59.570Z,99032.38
2019-03-23T12:52:31.664Z,99035.41
2019-03-23T12:55:02.709Z,99037.56
2019-03-23T12:57:33.955Z,99026.68
2019-03-23T13:00:03.938Z,99028.47
2019-03-23T13:02:33.703Z,99024.00
2019-03-23T13:05:04.768Z,99022.03
2019-03-23T13:07:34.577Z,99020.57
2019-03-23T13:10:06.276Z,99011.40
2019-03-23T13:12:37.373Z,99010.22
2019-03-23T13:15:07.531Z,99010.80
2019-03-23T13:17:37.071Z,99012.30
2019-03-23T13:20:08.835Z,99008.19
2019-03-23T13:22:40.308Z,99010.18
2019-03-23T13:25:11.274Z,98999.62
2019-03-23T13:27:42.492Z,98999.33
2019-03-23T13:30:14.250Z,99002.37
2019-03-23T13:32:45.477Z,99004.38
2019-03-23T13:35:16.720Z,98999.36
2019-03-23T13:37:47.606Z,98999.56
2019-03-23T13:40:18.919Z,98998.88
2019-03-23T13:42:50.000Z,98988.55
2019-03-23T13:45:21.157Z,98985.88
2019-03-23T13:47:52.299Z,98988.75
2019-03-23T13:50:28.476Z,98977.88
2019-03-23T13:52:57.978Z,98980.26
2019-03-23T13:55:31.213Z,98982.22
2019-03-23T13:58:12.534Z,98975.05
2019-03-23T14:00:44.760Z,98977.48
2019-03-23T14:03:15.819Z,98978.47
2019-03-23T14:05:46.793Z,98975.12
2019-03-23T14:08:17.784Z,98978.27
2019-03-23T14:10:49.652Z,98972.64
2019-03-23T14:13:20.629Z,98968.45
2019-03-23T14:15:51.832Z,98967.94
2019-03-23T14:18:22.936Z,98967.19
2019-03-23T14:20:54.287Z,98966.61
2019-03-23T14:23:25.622Z,98970.55
2019-03-23T14:25:56.750Z,98968.75
2019-03-23T14:28:28.822Z,98965.58
2019-03-23T14:31:00.045Z,98965.02
2019-03-23T14:33:32.902Z,98960.44
2019-03-23T14:36:04.429Z,98961.18
2019-03-23T14:38:35.903Z,98959.25
2019-03-23T14:41:07.368Z,98959.78
2019-03-23T14:43:38.980Z,98958.89
2019-03-23T14:46:10.075Z,98953.61
2019-03-23T14:48:45.497Z,98947.36
2019-03-23T14:51:16.550Z,98951.84
2019-03-23T14:53:47.824Z,98948.10
2019-03-23T14:56:18.855Z,98952.35
2019-03-23T14:58:49.742Z,98945.34
2019-03-23T15:01:21.078Z,98940.23
2019-03-23T15:03:52.264Z,98945.26
2019-03-23T15:06:23.682Z,98939.02
2019-03-23T15:08:56.167Z,98942.01
2019-03-23T15:11:27.253Z,98942.31
2019-03-23T15:13:58.756Z,98942.22
2019-03-23T15:16:29.869Z,98936.07
2019-03-23T15:19:02.068Z,98934.36
2019-03-23T15:21:33.089Z,98934.87
2019-03-23T15:24:05.663Z,98928.24
2019-03-23T15:26:36.569Z,98929.36
2019-03-23T15:29:08.526Z,98927.67
2019-03-23T15:31:39.948Z,98931.39
2019-03-23T15:34:11.953Z,98933.73
2019-03-23T15:36:43.058Z,98935.99
2019-03-23T15:39:14.507Z,98934.13
2019-03-23T15:41:45.484Z,98931.47
2019-03-23T15:44:16.549Z,98932.52
2019-03-23T15:46:47.704Z,98931.43
2019-03-23T15:49:18.939Z,98934.22
2019-03-23T15:51:52.587Z,98930.50
2019-03-23T15:54:23.557Z,98935.52
2019-03-23T15:56:54.529Z,98933.47
2019-03-23T15:59:26.018Z,98932.30
2019-03-23T16:01:57.548Z,98940.45
2019-03-23T16:04:29.060Z,98932.10
2019-03-23T16:07:00.333Z,98937.49
2019-03-23T16:09:32.320Z,98934.97
2019-03-23T16:12:03.541Z,98935.89
2019-03-23T16:14:34.680Z,98929.71
2019-03-23T16:17:05.791Z,98932.81
2019-03-23T16:19:37.073Z,98942.05
2019-03-23T16:22:08.271Z,98940.92
2019-03-23T16:24:40.544Z,98936.16
2019-03-23T16:27:11.588Z,98941.39
2019-03-23T16:29:42.717Z,98942.96
2019-03-23T16:32:13.999Z,98946.94
2019-03-23T16:34:45.259Z,98943.05
2019-03-23T16:37:16.157Z,98943.33
2019-03-23T16:39:47.357Z,98947.97
2019-03-23T16:42:18.662Z,98950.91
2019-03-23T16:44:49.605Z,98946.12
2019-03-23T16:47:20.783Z,98945.05
2019-03-23T16:49:52.014Z,98944.77
2019-03-23T16:52:23.256Z,98943.98
2019-03-23T16:54:54.374Z,98933.39
2019-03-23T16:57:25.741Z,98942.64
2019-03-23T16:59:56.797Z,98936.81
2019-03-23T17:02:27.944Z,98936.30
2019-03-23T17:04:59.076Z,98935.02
2019-03-23T17:07:30.311Z,98939.20
2019-03-23T17:10:01.710Z,98940.85
2019-03-23T17:12:33.779Z,98939.59
2019-03-23T17:15:05.425Z,98938.89
2019-03-23T17:17:36.353Z,98939.57
2019-03-23T17:20:13.219Z,98944.88
2019-03-23T17:22:44.222Z,98944.45
2019-03-23T17:25:15.486Z,98953.41
2019-03-23T17:27:46.479Z,98943.72
2019-03-23T17:30:17.703Z,98950.14
2019-03-23T17:32:50.604Z,98945.80
2019-03-23T17:35:21.794Z,98944.06
2019-03-23T17:37:53.014Z,98951.82
2019-03-23T17:40:24.503Z,98946.83
2019-03-23T17:43:05.354Z,98947.92
2019-03-23T17:45:29.639Z,98957.98
2019-03-23T17:48:00.657Z,98963.13
2019-03-23T17:50:32.020Z,98967.66
2019-03-23T17:53:03.229Z,98971.31
2019-03-23T17:55:34.440Z,98969.58
2019-03-23T17:58:05.927Z,98976.52
2019-03-23T18:00:37.000Z,98978.08
2019-03-23T18:03:08.147Z,98975.69
2019-03-23T18:05:41.091Z,98973.80
2019-03-23T18:08:12.177Z,98973.61
2019-03-23T18:10:43.361Z,98982.05
2019-03-23T18:13:16.818Z,98990.20
2019-03-23T18:15:47.153Z,98989.40
2019-03-23T18:18:18.237Z,98991.89
2019-03-23T18:20:49.774Z,98997.56
2019-03-23T18:23:21.038Z,98994.02
2019-03-23T18:25:51.986Z,98994.57
2019-03-23T18:28:23.222Z,99002.83
2019-03-23T18:30:54.866Z,99001.67
2019-03-23T18:33:25.971Z,99006.48
2019-03-23T18:35:57.922Z,99009.92
2019-03-23T18:38:29.124Z,99010.13
2019-03-23T18:41:01.379Z,99005.98
2019-03-23T18:43:34.432Z,99006.03
2019-03-23T18:46:06.011Z,99014.84
2019-03-23T18:48:37.106Z,99010.69
2019-03-23T18:51:08.132Z,99026.73
2019-03-23T18:53:39.234Z,99018.77
2019-03-23T18:56:11.405Z,99025.17
2019-03-23T18:58:42.588Z,99027.23
2019-03-23T19:01:14.899Z,99021.36
2019-03-23T19:03:46.162Z,99031.20
2019-03-23T19:06:18.093Z,99024.77
2019-03-23T19:08:49.775Z,99027.89
2019-03-23T19:11:21.360Z,99029.33
2019-03-23T19:13:52.444Z,99024.53
2019-03-23T19:16:23.440Z,99025.42
2019-03-23T19:18:54.853Z,99026.55
2019-03-23T19:21:25.915Z,99019.86
2019-03-23T19:23:57.020Z,99026.92
2019-03-23T19:26:28.342Z,99026.97
2019-03-23T19:28:59.413Z,99025.63
2019-03-23T19:31:30.596Z,99028.61
2019-03-23T19:34:01.748Z,99020.51
2019-03-23T19:36:33.101Z,99031.07
2019-03-23T19:39:06.063Z,99023.25
2019-03-23T19:41:37.247Z,99031.60
2019-03-23T19:44:09.004Z,99026.22
2019-03-23T19:46:40.740Z,99030.53
2019-03-23T19:49:11.771Z,99046.20
2019-03-23T19:51:43.234Z,99037.59
2019-03-23T19:54:14.459Z,99039.48
2019-03-23T19:56:46.386Z,99042.98
2019-03-23T19:59:17.657Z,99040.26
2019-03-23T20:01:48.951Z,99044.31
2019-03-23T20:04:20.136Z,99042.95
2019-03-23T20:06:51.370Z,99037.82
2019-03-23T20:09:23.309Z,99043.73
2019-03-23T20:11:55.200Z,99038.56
2019-03-23T20:14:26.300Z,99045.83
2019-03-23T20:16:58.507Z,99040.15
2019-03-23T20:19:29.498Z,99037.14
2019-03-23T20:22:00.821Z,99038.78
2019-03-23T20:24:31.960Z,99039.30
2019-03-23T20:27:03.551Z,99036.80
2019-03-23T20:29:34.755Z,99036.45
2019-03-23T20:32:08.474Z,99034.55
2019-03-23T20:34:39.829Z,99039.92
2019-03-23T20:37:10.829Z,99043.39
2019-03-23T20:39:42.095Z,99046.30
2019-03-23T20:42:14.080Z,99047.59
2019-03-23T20:44:45.651Z,99038.64
2019-03-23T20:47:17.251Z,99043.13
2019-03-23T20:49:48.750Z,99040.89
2019-03-23T20:52:20.828Z,99043.91
2019-03-23T20:54:52.109Z,99042.03
2019-03-23T20:57:24.379Z,99037.89
2019-03-23T20:59:56.167Z,99044.31
2019-03-23T21:02:27.505Z,99043.98
2019-03-23T21:04:58.748Z,99051.95
2019-03-23T21:07:30.610Z,99047.55
2019-03-23T21:10:02.121Z,99049.13
2019-03-23T21:12:34.147Z,99049.07
2019-03-23T21:15:05.458Z,99047.05
2019-03-23T21:17:50.439Z,99057.32
2019-03-23T21:20:10.520Z,99056.67
2019-03-23T21:22:41.822Z,99060.88
2019-03-23T21:25:13.289Z,99061.27
2019-03-23T21:27:44.531Z,99057.91
2019-03-23T21:30:16.530Z,99060.04
2019-03-23T21:32:47.782Z,99052.23
2019-03-23T21:35:19.385Z,99053.22
2019-03-23T21:37:51.459Z,99055.64
2019-03-23T21:40:22.613Z,99052.06
2019-03-23T21:42:55.165Z,99051.49
2019-03-23T21:45:26.607Z,99051.72
2019-03-23T21:47:58.284Z,99051.76
2019-03-23T21:50:30.275Z,99046.30
2019-03-23T21:53:01.515Z,99042.94
2019-03-23T21:55:36.064Z,99044.21
2019-03-23T21:58:07.435Z,99044.35
2019-03-23T22:00:39.270Z,99044.30
2019-03-23T22:03:10.550Z,99041.63
2019-03-23T22:05:41.736Z,99038.67
2019-03-23T22:08:12.931Z,99034.34
2019-03-23T22:10:44.101Z,99037.77
2019-03-23T22:13:15.334Z,99035.61
2019-03-23T22:15:46.448Z,99034.92
2019-03-23T22:18:17.587Z,99031.02
2019-03-23T22:20:48.904Z,99025.03
2019-03-23T22:23:22.384Z,99023.30
2019-03-23T22:25:53.658Z,99018.86
2019-03-23T22:28:24.739Z,99022.84
2019-03-23T22:30:56.044Z,99028.36
2019-03-23T22:33:28.235Z,99030.59
2019-03-23T22:35:59.700Z,99017.45
2019-03-23T22:38:31.616Z,99017.23
2019-03-23T22:41:02.681Z,99017.13
2019-03-23T22:43:33.825Z,99021.63
2019-03-23T22:46:06.233Z,99015.39
2019-03-23T22:48:37.269Z,99006.98
2019-03-23T22:51:08.489Z,99007.13
2019-03-23T22:53:39.490Z,99006.53
2019-03-23T22:56:10.655Z,99006.67
2019-03-23T22:58:42.117Z,99000.44
2019-03-23T23:01:13.356Z,99000.89
2019-03-23T23:03:44.544Z,98992.70
2019-03-23T23:06:15.800Z,98995.86
2019-03-23T23:08:47.280Z,98997.64
2019-03-23T23:11:18.768Z,98993.97
2019-03-23T23:13:50.659Z,98998.19
2019-03-23T23:16:21.948Z,98994.24
2019-03-23T23:18:54.008Z,98990.74
2019-03-23T23:21:25.291Z,98984.81
2019-03-23T23:23:57.551Z,98985.63
2019-03-23T23:26:29.065Z,98984.29
2019-03-23T23:29:00.676Z,98984.79
2019-03-23T23:31:31.976Z,98978.80
2019-03-23T23:34:04.094Z,98979.72
2019-03-23T23:36:35.290Z,98979.65
2019-03-23T23:39:07.886Z,98983.42
2019-03-23T23:41:38.865Z,98981.48
2019-03-23T23:44:10.344Z,98981.64
2019-03-23T23:46:41.348Z,98972.52
2019-03-23T23:49:13.109Z,98973.75
2019-03-23T23:51:50.106Z,98972.14
2019-03-23T23:54:16.647Z,98971.19
2019-03-23T23:56:47.965Z,98976.61
2019-03-23T23:59:19.842Z,98976.17
